Time;durP1;ratioP1;P1;durP2;ratioP2;P2;SDS_P1;SDS_P2;PMS_P1;PMS_P2;Temp;Humidity;BMP_temperature;BMP_pressure;BME280_temperature;BME280_humidity;BME280_pressure;Samples;Min_cycle;Max_cycle;Signal;HPM_P1;HPM_P2
2021/04/02 00:00:41;;;;;;;2.80;1.10;;;;;;;17.45;38.15;100389.16;4695737;30;20080;-77
2021/04/02 00:03:46;;;;;;;4.13;1.17;;;;;;;17.46;37.79;100387.28;4695381;30;20052;-77
2021/04/02 00:06:50;;;;;;;4.15;1.02;;;;;;;17.43;37.80;100377.63;4696361;30;20070;-75
2021/04/02 00:09:54;;;;;;;3.25;1.20;;;;;;;17.39;37.63;100376.31;4695757;30;20060;-76
2021/04/02 00:12:59;;;;;;;5.15;1.10;;;;;;;17.39;37.59;100376.31;4698193;30;20053;-76
2021/04/02 00:16:05;;;;;;;2.38;0.90;;;;;;;17.40;37.83;100371.75;4694927;30;20060;-74
2021/04/02 00:19:10;;;;;;;3.17;0.80;;;;;;;17.35;38.32;100361.44;4695212;30;20048;-76
2021/04/02 00:22:14;;;;;;;3.92;1.42;;;;;;;17.33;38.17;100359.91;4695230;30;20057;-75
2021/04/02 00:25:18;;;;;;;3.50;1.20;;;;;;;17.27;38.44;100366.88;4695292;30;20458;-77
2021/04/02 00:28:23;;;;;;;3.35;1.00;;;;;;;17.31;37.98;100362.78;4693546;30;20418;-76
2021/04/02 00:31:33;;;;;;;3.67;0.90;;;;;;;17.27;38.08;100372.31;4695268;30;20403;-76
2021/04/02 00:34:38;;;;;;;4.97;0.98;;;;;;;17.25;38.02;100373.50;4695299;30;20513;-76
2021/04/02 00:37:42;;;;;;;3.33;0.88;;;;;;;17.23;38.23;100375.56;4696281;30;20551;-76
2021/04/02 00:40:48;;;;;;;4.43;1.05;;;;;;;17.23;38.51;100368.25;4694700;30;20045;-75
2021/04/02 00:43:52;;;;;;;2.17;1.00;;;;;;;17.23;38.70;100370.94;4694977;30;20116;-74
2021/04/02 00:46:56;;;;;;;2.60;1.00;;;;;;;17.24;38.35;100364.53;4692597;30;20485;-74
2021/04/02 00:50:01;;;;;;;3.50;1.10;;;;;;;17.21;38.10;100358.59;4694720;30;20053;-77
2021/04/02 00:53:07;;;;;;;4.80;1.20;;;;;;;17.19;38.39;100363.34;4696201;30;20398;-74
2021/04/02 00:56:13;;;;;;;3.35;1.40;;;;;;;17.16;38.63;100372.69;4695182;30;20058;-77
2021/04/02 00:59:18;;;;;;;3.13;0.98;;;;;;;17.14;38.52;100372.03;4694898;30;20046;-76
2021/04/02 01:02:23;;;;;;;2.75;0.77;;;;;;;16.99;40.45;100375.63;4696062;30;20057;-77
2021/04/02 01:05:31;;;;;;;3.10;1.30;;;;;;;16.66;42.18;100377.63;4696041;30;20399;-76
2021/04/02 01:08:37;;;;;;;4.38;1.20;;;;;;;16.55;42.69;100376.13;4696586;30;20063;-76
2021/04/02 01:11:43;;;;;;;4.07;0.80;;;;;;;16.52;42.51;100381.03;4694488;30;20065;-77
2021/04/02 01:14:48;;;;;;;2.53;1.23;;;;;;;16.40;43.09;100368.81;4696177;30;20053;-76
2021/04/02 01:17:53;;;;;;;4.47;1.05;;;;;;;16.37;43.40;100366.47;4698178;30;20057;-77
2021/04/02 01:21:02;;;;;;;3.85;1.10;;;;;;;16.38;43.23;100360.88;4694757;30;20073;-75
2021/04/02 01:24:09;;;;;;;3.13;0.98;;;;;;;16.34;43.15;100358.69;4703356;30;20052;-76
2021/04/02 01:27:38;;;;;;;3.22;1.20;;;;;;;16.25;43.46;100361.38;4703090;30;20053;-75
2021/04/02 01:30:42;;;;;;;4.35;1.10;;;;;;;16.09;44.20;100353.28;4707969;30;20054;-75
2021/04/02 01:33:47;;;;;;;3.63;1.00;;;;;;;16.09;43.52;100352.44;4704637;30;20402;-77
2021/04/02 01:36:54;;;;;;;3.17;1.30;;;;;;;16.10;44.17;100349.56;4697050;30;20077;-76
2021/04/02 01:40:02;;;;;;;2.17;0.95;;;;;;;16.05;44.47;100354.63;4693351;30;20052;-77
2021/04/02 01:43:11;;;;;;;2.22;1.35;;;;;;;16.00;44.71;100354.28;4693806;30;20052;-75
2021/04/02 01:46:17;;;;;;;4.18;1.08;;;;;;;15.92;45.06;100361.59;4703184;30;20057;-76
2021/04/02 01:49:23;;;;;;;2.55;1.10;;;;;;;15.93;45.01;100358.69;4703056;30;20061;-76
2021/04/02 01:52:29;;;;;;;3.22;1.25;;;;;;;15.87;44.79;100353.13;4695532;30;20061;-77
2021/04/02 01:55:35;;;;;;;3.65;1.42;;;;;;;15.85;43.50;100350.56;4707078;30;20062;-76
2021/04/02 01:58:43;;;;;;;4.38;1.20;;;;;;;15.90;44.85;100360.91;4693157;30;20053;-77
2021/04/02 02:01:49;;;;;;;3.08;1.33;;;;;;;15.86;45.36;100356.81;4693442;30;20064;-74
2021/04/02 02:04:58;;;;;;;4.68;1.30;;;;;;;15.83;45.29;100357.16;4702441;30;20434;-75
2021/04/02 02:08:06;;;;;;;5.10;1.75;;;;;;;15.72;45.57;100349.38;4696208;30;20073;-76
2021/04/02 02:11:18;;;;;;;3.33;1.63;;;;;;;15.75;45.08;100352.59;4695053;30;20065;-76
2021/04/02 02:14:30;;;;;;;3.47;1.52;;;;;;;15.78;45.04;100360.38;4693651;30;20056;-75
2021/04/02 02:18:00;;;;;;;7.00;1.90;;;;;;;15.67;46.10;100362.56;4694766;30;20057;-76
2021/04/02 02:21:13;;;;;;;8.80;1.92;;;;;;;15.69;44.49;100355.13;4693096;30;20061;-74
2021/04/02 02:24:20;;;;;;;;;;;;;;;15.61;44.48;100353.25;4701062;30;20061;-76
2021/04/02 02:27:25;;;;;;;6.05;1.77;;;;;;;15.60;45.11;100351.56;4692641;30;20294;-76
2021/04/02 02:30:33;;;;;;;6.07;2.33;;;;;;;15.59;43.70;100339.91;4693271;30;20057;-76
2021/04/02 02:33:55;;;;;;;5.40;2.28;;;;;;;15.61;43.21;100337.00;4700448;30;20057;-76
2021/04/02 02:37:11;;;;;;;3.22;1.70;;;;;;;15.60;43.45;100338.88;4697993;30;20052;-74
2021/04/02 02:40:25;;;;;;;3.70;1.93;;;;;;;15.61;43.17;100332.47;4702205;30;20076;-74
2021/04/02 02:43:31;;;;;;;8.23;1.90;;;;;;;15.61;42.71;100342.44;4694423;30;20056;-75
2021/04/02 02:46:38;;;;;;;4.18;1.67;;;;;;;15.63;43.63;100340.41;4701741;30;20052;-77
2021/04/02 02:49:44;;;;;;;3.60;1.40;;;;;;;15.61;44.52;100339.72;4701876;30;20072;-77
2021/04/02 02:52:52;;;;;;;5.65;1.52;;;;;;;15.51;44.71;100339.88;4692622;30;20053;-77
2021/04/02 02:55:58;;;;;;;6.05;1.90;;;;;;;15.34;45.87;100339.97;4705920;30;20378;-76
2021/04/02 02:59:10;;;;;;;8.27;2.33;;;;;;;15.27;45.63;100338.94;4694970;30;20057;-77
2021/04/02 03:02:17;;;;;;;5.78;2.00;;;;;;;15.17;45.67;100330.13;4692148;30;20068;-76
2021/04/02 03:05:25;;;;;;;5.32;2.10;;;;;;;15.21;44.18;100328.81;4692159;30;20500;-76
2021/04/02 03:08:37;;;;;;;8.13;1.80;;;;;;;15.10;44.57;100329.09;4692325;30;20060;-75
2021/04/02 03:11:46;;;;;;;8.57;1.80;;;;;;;15.05;44.02;100329.59;4693885;30;20052;-76
2021/04/02 03:14:51;;;;;;;3.28;1.58;;;;;;;14.95;43.41;100332.44;4702746;30;20084;-77
2021/04/02 03:18:06;;;;;;;4.55;2.03;;;;;;;14.82;44.25;100318.53;4695068;30;20064;-77
2021/04/02 03:21:13;;;;;;;5.78;2.47;;;;;;;14.82;43.84;100321.22;4707020;30;20045;-77
2021/04/02 03:24:19;;;;;;;8.98;2.13;;;;;;;14.76;44.94;100329.97;4701550;30;20052;-76
2021/04/02 03:27:24;;;;;;;3.88;1.60;;;;;;;14.70;45.66;100329.78;4692088;30;20510;-77
2021/04/02 03:30:30;;;;;;;4.70;1.92;;;;;;;14.65;45.83;100324.00;4694036;30;20068;-77
2021/04/02 03:33:44;;;;;;;6.40;2.08;;;;;;;14.68;45.60;100334.50;4694268;30;20049;-77
2021/04/02 03:36:58;;;;;;;7.45;2.22;;;;;;;14.63;45.98;100337.69;4701099;30;20057;-76
2021/04/02 03:40:08;;;;;;;4.90;2.10;;;;;;;14.55;46.62;100332.22;4691044;30;20143;-75
2021/04/02 03:43:14;;;;;;;6.03;2.15;;;;;;;14.55;47.39;100323.28;4690028;30;20064;-76
2021/04/02 03:46:21;;;;;;;8.95;2.45;;;;;;;14.44;47.78;100324.41;4692518;30;20057;-77
2021/04/02 03:49:33;;;;;;;17.98;2.90;;;;;;;14.44;48.51;100320.88;4693589;30;20509;-77
2021/04/02 03:52:42;;;;;;;12.32;2.92;;;;;;;14.42;49.08;100328.28;4692390;30;20518;-76
2021/04/02 03:55:47;;;;;;;15.75;2.53;;;;;;;14.43;49.12;100333.50;4693598;30;20052;-75
2021/04/02 03:58:54;;;;;;;9.95;2.33;;;;;;;14.45;48.93;100326.09;4691990;30;20148;-77
2021/04/02 04:02:05;;;;;;;7.20;3.28;;;;;;;14.39;47.88;100332.16;4701039;30;20056;-77
2021/04/02 04:05:14;;;;;;;11.40;2.80;;;;;;;14.32;47.60;100315.72;4693985;30;20048;-75
2021/04/02 04:08:20;;;;;;;13.10;3.25;;;;;;;14.38;49.01;100329.59;4693856;30;20048;-76
2021/04/02 04:11:31;;;;;;;8.35;2.50;;;;;;;14.39;48.82;100332.16;4693484;30;20060;-76
2021/04/02 04:14:39;;;;;;;4.32;2.20;;;;;;;14.40;47.86;100343.78;4693601;30;20061;-76
2021/04/02 04:17:47;;;;;;;10.32;2.83;;;;;;;14.23;46.43;100346.34;4694535;30;20060;-75
2021/04/02 04:20:54;;;;;;;7.78;2.95;;;;;;;14.23;48.34;100348.19;4695277;30;20053;-76
2021/04/02 04:24:11;;;;;;;10.55;5.75;;;;;;;14.17;49.14;100335.34;4679467;30;20052;-76
2021/04/02 04:27:17;;;;;;;12.55;6.75;;;;;;;14.20;49.05;100345.81;4697238;30;20061;-77
2021/04/02 04:30:24;;;;;;;16.08;6.35;;;;;;;14.19;49.24;100339.59;4694051;30;20059;-76
2021/04/02 04:33:31;;;;;;;11.50;4.82;;;;;;;14.06;49.89;100341.00;4695185;30;20403;-76
2021/04/02 04:36:36;;;;;;;11.25;3.42;;;;;;;14.03;49.72;100335.91;4704053;30;20049;-75
2021/04/02 04:39:43;;;;;;;10.70;2.20;;;;;;;13.98;48.77;100347.16;4695235;30;20163;-76
2021/04/02 04:42:48;;;;;;;5.20;2.20;;;;;;;13.98;47.90;100340.91;4694713;30;20057;-77
2021/04/02 04:45:54;;;;;;;6.28;2.33;;;;;;;13.94;48.01;100340.41;4694760;30;20066;-77
2021/04/02 04:48:58;;;;;;;6.18;2.15;;;;;;;14.00;46.54;100336.25;4694017;30;20061;-76
2021/04/02 04:52:04;;;;;;;12.63;2.67;;;;;;;13.99;46.82;100329.97;4694683;30;20061;-74
2021/04/02 04:55:11;;;;;;;4.85;2.17;;;;;;;13.98;46.68;100332.81;4703769;30;20402;-76
2021/04/02 04:58:18;;;;;;;5.63;1.70;;;;;;;13.93;45.86;100335.13;4695930;30;20426;-76
2021/04/02 05:01:25;;;;;;;5.38;2.05;;;;;;;13.91;45.47;100331.75;4697062;30;20064;-76
2021/04/02 05:04:30;;;;;;;6.68;1.95;;;;;;;13.93;45.43;100332.44;4694381;30;20406;-76
2021/04/02 05:07:38;;;;;;;9.90;2.88;;;;;;;13.93;45.21;100335.13;4694445;30;20414;-75
2021/04/02 05:10:44;;;;;;;8.95;2.25;;;;;;;13.97;45.89;100331.16;4694660;30;20056;-74
2021/04/02 05:13:50;;;;;;;66.43;50.72;;;;;;;14.16;45.98;100337.19;4695998;30;20116;-75
2021/04/02 05:16:55;;;;;;;35.75;19.38;;;;;;;14.21;44.99;100328.63;4694261;30;20518;-75
2021/04/02 05:20:00;;;;;;;14.70;4.30;;;;;;;14.23;45.29;100330.16;4694450;30;20050;-77
2021/04/02 05:23:04;;;;;;;11.13;2.45;;;;;;;14.47;44.92;100337.59;4694140;30;20067;-76
2021/04/02 05:26:13;;;;;;;10.25;2.72;;;;;;;14.61;44.92;100341.56;4695309;30;20049;-76
2021/04/02 05:29:18;;;;;;;9.85;3.08;;;;;;;14.79;44.64;100347.72;4695475;30;20057;-76
2021/04/02 05:32:22;;;;;;;15.43;3.42;;;;;;;14.91;44.20;100344.56;4693123;30;20080;-77
2021/04/02 05:35:27;;;;;;;11.25;2.72;;;;;;;15.63;43.29;100356.63;4692934;30;20437;-76
2021/04/02 05:38:31;;;;;;;18.45;3.10;;;;;;;15.99;42.33;100351.75;4693835;30;20049;-76
2021/04/02 05:41:51;;;;;;;25.38;3.67;;;;;;;16.54;41.95;100360.03;4692954;30;20518;-76
2021/04/02 05:44:59;;;;;;;16.00;3.83;;;;;;;16.65;41.88;100363.22;4689325;30;20057;-74
2021/04/02 05:48:06;;;;;;;29.45;3.67;;;;;;;16.12;42.65;100362.94;4684600;30;20075;-75
2021/04/02 05:51:12;;;;;;;19.98;3.65;;;;;;;15.97;43.03;100365.44;4684754;30;20057;-75
2021/04/02 05:54:23;;;;;;;15.77;3.55;;;;;;;15.95;43.90;100362.06;4684193;30;20061;-73
2021/04/02 05:57:29;;;;;;;15.10;3.38;;;;;;;16.03;43.63;100364.78;4684827;30;20071;-71
2021/04/02 06:00:35;;;;;;;24.33;3.65;;;;;;;15.88;43.22;100361.06;4684707;30;20061;-71
2021/04/02 06:03:40;;;;;;;17.52;2.80;;;;;;;15.78;43.04;100354.09;4693118;30;20049;-72
2021/04/02 06:06:45;;;;;;;9.30;2.78;;;;;;;15.88;43.12;100358.34;4701456;30;20536;-70
2021/04/02 06:09:50;;;;;;;15.15;2.60;;;;;;;15.92;43.20;100357.03;4701801;30;20402;-71
2021/04/02 06:12:58;;;;;;;14.00;2.85;;;;;;;16.21;42.64;100362.75;4699849;30;20080;-71
2021/04/02 06:16:03;;;;;;;9.70;2.97;;;;;;;17.28;40.43;100362.31;4694921;30;20444;-72
2021/04/02 06:19:09;;;;;;;26.05;5.60;;;;;;;17.57;39.83;100370.66;4701094;30;20052;-71
2021/04/02 06:22:14;;;;;;;17.40;3.08;;;;;;;17.24;38.79;100360.97;4701683;30;20056;-71
2021/04/02 06:25:18;;;;;;;10.23;2.47;;;;;;;17.04;39.42;100363.25;4701187;30;20057;-71
2021/04/02 06:28:28;;;;;;;14.43;2.55;;;;;;;16.68;39.61;100364.75;4700668;30;20395;-73
2021/04/02 06:31:35;;;;;;;12.30;2.88;;;;;;;16.80;40.02;100369.63;4701107;30;20057;-73
2021/04/02 06:34:48;;;;;;;15.52;3.28;;;;;;;17.07;39.54;100364.75;4701001;30;20410;-72
2021/04/02 06:37:56;;;;;;;19.40;3.42;;;;;;;17.54;39.39;100366.44;4683593;30;20522;-75
2021/04/02 06:41:03;;;;;;;41.08;5.78;;;;;;;17.97;38.37;100367.63;4798240;24;20218;-70
2021/04/02 06:44:09;;;;;;;31.52;4.57;;;;;;;18.32;37.39;100360.72;4733768;30;20071;-70
2021/04/02 06:47:13;;;;;;;10.45;2.22;;;;;;;18.48;36.68;100374.19;4735427;30;20060;-72
2021/04/02 06:50:18;;;;;;;9.68;2.17;;;;;;;18.54;35.98;100367.19;4735533;30;20059;-72
2021/04/02 06:53:24;;;;;;;7.70;2.28;;;;;;;18.62;35.59;100369.78;4735876;30;20059;-70
2021/04/02 06:56:30;;;;;;;7.78;1.80;;;;;;;18.92;35.50;100366.06;4735269;30;20063;-72
2021/04/02 06:59:35;;;;;;;14.73;2.55;;;;;;;19.22;34.88;100359.56;4735992;30;20071;-70
2021/04/02 07:02:42;;;;;;;7.05;1.83;;;;;;;19.44;34.66;100368.66;4735968;30;20067;-71
2021/04/02 07:05:48;;;;;;;13.98;2.17;;;;;;;19.88;34.10;100363.91;4715510;30;20064;-70
2021/04/02 07:08:54;;;;;;;20.50;2.50;;;;;;;20.88;32.31;100366.44;4715933;30;20060;-72
2021/04/02 07:12:02;;;;;;;10.75;2.10;;;;;;;21.76;31.07;100366.41;4715845;30;20064;-71
2021/04/02 07:15:08;;;;;;;12.00;2.47;;;;;;;23.07;28.25;100360.97;4729655;30;20065;-71
2021/04/02 07:18:13;;;;;;;9.52;2.33;;;;;;;23.55;27.19;100350.47;4734682;30;20060;-71
2021/04/02 07:21:18;;;;;;;22.45;3.42;;;;;;;23.35;27.51;100352.44;4734966;30;20067;-71
2021/04/02 07:24:23;;;;;;;36.70;4.50;;;;;;;23.23;28.14;100355.03;4735068;30;20060;-71
2021/04/02 07:27:28;;;;;;;14.65;2.92;;;;;;;24.93;26.01;100356.63;4734325;30;20056;-71
2021/04/02 07:30:33;;;;;;;21.95;3.10;;;;;;;30.63;20.23;100351.31;4735171;30;20060;-71
2021/04/02 07:33:43;;;;;;;13.07;3.33;;;;;;;34.65;16.51;100349.47;4734224;30;20059;-72
2021/04/02 07:36:48;;;;;;;8.45;2.88;;;;;;;39.42;13.22;100339.84;4735298;30;20056;-72
2021/04/02 07:39:54;;;;;;;7.05;2.20;;;;;;;42.42;11.50;100341.84;4734579;30;20401;-71
2021/04/02 07:43:06;;;;;;;12.40;2.80;;;;;;;44.06;10.72;100345.06;4734367;30;20051;-71
2021/04/02 07:46:13;;;;;;;16.40;3.35;;;;;;;45.30;10.73;100348.59;4734834;30;20056;-72
2021/04/02 07:49:18;;;;;;;16.17;3.03;;;;;;;45.74;10.21;100347.28;4734894;30;20051;-71
2021/04/02 07:52:35;;;;;;;10.93;2.50;;;;;;;47.49;9.38;100354.09;4734732;30;20126;-72
2021/04/02 07:55:48;;;;;;;12.80;2.65;;;;;;;46.74;9.53;100345.44;4735020;30;20060;-72
2021/04/02 07:58:53;;;;;;;9.05;2.38;;;;;;;46.31;9.64;100355.06;4737842;30;20504;-72
2021/04/02 08:01:59;;;;;;;10.48;2.50;;;;;;;46.33;10.38;100355.50;4737381;30;20059;-73
2021/04/02 08:05:14;;;;;;;7.32;2.47;;;;;;;46.59;9.85;100354.84;4738056;30;20064;-72
2021/04/02 08:08:19;;;;;;;7.60;2.63;;;;;;;47.88;9.43;100344.13;4738093;30;20052;-72
2021/04/02 08:11:37;;;;;;;9.93;2.42;;;;;;;47.12;9.45;100342.47;4737186;30;20067;-73
2021/04/02 08:14:47;;;;;;;9.18;3.10;;;;;;;47.09;9.62;100340.38;4738217;30;20051;-72
2021/04/02 08:17:55;;;;;;;6.40;2.35;;;;;;;47.97;9.43;100341.00;4738042;30;20051;-73
2021/04/02 08:21:13;;;;;;;7.70;2.45;;;;;;;47.03;9.57;100336.22;4737880;30;20069;-72
2021/04/02 08:24:22;;;;;;;6.47;2.33;;;;;;;45.87;10.51;100331.78;4735487;30;20059;-72
2021/04/02 08:27:31;;;;;;;10.23;2.05;;;;;;;47.00;9.19;100328.44;4737499;30;20547;-72
2021/04/02 08:30:36;;;;;;;8.02;2.90;;;;;;;45.56;10.71;100328.97;4737983;30;20401;-73
2021/04/02 08:33:41;;;;;;;9.05;2.30;;;;;;;45.10;9.73;100331.50;4737484;30;20385;-72
2021/04/02 08:36:48;;;;;;;8.48;3.80;;;;;;;44.38;10.23;100329.03;4737888;30;20056;-73
2021/04/02 08:39:53;;;;;;;9.75;3.72;;;;;;;44.60;9.78;100322.81;4737522;30;20056;-74
2021/04/02 08:43:06;;;;;;;8.48;2.78;;;;;;;44.66;10.53;100312.88;4737273;30;20511;-72
2021/04/02 08:46:10;;;;;;;7.40;1.88;;;;;;;44.65;10.38;100322.56;4736659;30;20071;-72
2021/04/02 08:49:15;;;;;;;6.88;2.22;;;;;;;44.19;10.78;100321.22;4737053;30;20068;-72
2021/04/02 08:52:24;;;;;;;7.13;2.33;;;;;;;43.22;11.34;100323.31;4736963;30;20535;-72
2021/04/02 08:55:28;;;;;;;12.65;2.90;;;;;;;43.00;11.68;100318.13;4720050;30;20134;-73
2021/04/02 08:58:34;;;;;;;15.13;2.60;;;;;;;42.79;11.63;100321.00;4719034;30;20056;-72
2021/04/02 09:01:42;;;;;;;14.02;3.28;;;;;;;43.01;12.10;100316.97;4719895;30;20064;-71
2021/04/02 09:04:48;;;;;;;14.20;3.00;;;;;;;41.89;12.37;100311.56;4719711;30;20060;-73
2021/04/02 09:07:57;;;;;;;12.90;2.95;;;;;;;39.91;13.27;100310.50;4719703;30;20417;-73
2021/04/02 09:11:05;;;;;;;11.10;2.80;;;;;;;36.39;15.14;100309.53;4719654;30;20056;-72
2021/04/02 09:14:12;;;;;;;11.77;2.25;;;;;;;33.87;17.04;100307.72;4719494;30;20074;-72
2021/04/02 09:17:23;;;;;;;9.40;2.50;;;;;;;32.90;18.26;100305.59;4719707;30;20074;-72
2021/04/02 09:20:28;;;;;;;11.43;2.92;;;;;;;31.11;20.30;100301.16;4724956;30;20075;-71
2021/04/02 09:23:33;;;;;;;16.83;3.17;;;;;;;30.75;20.82;100300.13;4736939;30;20069;-72
2021/04/02 09:26:43;;;;;;;12.32;3.17;;;;;;;29.32;21.00;100294.63;4734812;30;20401;-71
2021/04/02 09:29:58;;;;;;;10.85;2.90;;;;;;;28.28;22.01;100294.47;4736701;30;20047;-71
2021/04/02 09:33:03;;;;;;;10.57;2.90;;;;;;;27.42;24.01;100288.47;4736365;30;20059;-70
2021/04/02 09:36:09;;;;;;;11.98;2.90;;;;;;;26.80;24.20;100290.16;4736532;30;20067;-70
2021/04/02 09:39:21;;;;;;;10.57;3.08;;;;;;;26.41;25.09;100292.56;4736857;30;20063;-71
2021/04/02 09:42:26;;;;;;;6.88;3.00;;;;;;;26.14;25.51;100290.50;4736263;30;20056;-71
2021/04/02 09:45:33;;;;;;;8.32;3.10;;;;;;;25.83;25.46;100286.94;4736020;30;20118;-73
2021/04/02 09:48:38;;;;;;;8.80;2.80;;;;;;;25.86;25.27;100288.38;4719367;30;20070;-71
2021/04/02 09:51:45;;;;;;;12.98;3.08;;;;;;;26.17;24.65;100290.03;4732656;30;20060;-71
2021/04/02 09:54:50;;;;;;;11.82;3.50;;;;;;;25.97;26.01;100278.47;4735820;30;20063;-73
2021/04/02 09:57:55;;;;;;;11.68;3.50;;;;;;;25.70;27.07;100276.13;4736466;30;20060;-72
2021/04/02 10:00:59;;;;;;;11.65;3.42;;;;;;;25.55;27.07;100278.50;4727314;30;20059;-71
2021/04/02 10:04:05;;;;;;;8.82;2.97;;;;;;;25.10;27.36;100272.53;4736288;30;20063;-71
2021/04/02 10:07:10;;;;;;;12.82;3.10;;;;;;;25.06;27.17;100265.78;4735991;30;20055;-73
2021/04/02 10:10:15;;;;;;;9.63;2.70;;;;;;;25.06;26.96;100260.31;4735689;30;20055;-71
2021/04/02 10:13:19;;;;;;;12.45;3.55;;;;;;;25.44;26.67;100259.16;4736351;30;20052;-71
2021/04/02 10:16:24;;;;;;;14.95;3.25;;;;;;;25.56;26.85;100260.06;4735797;30;20056;-70
2021/04/02 10:19:29;;;;;;;9.55;2.72;;;;;;;25.47;26.03;100256.81;4736189;30;20052;-71
2021/04/02 10:22:33;;;;;;;5.25;2.75;;;;;;;24.95;27.38;100263.84;4736279;30;20047;-71
2021/04/02 10:25:37;;;;;;;12.02;2.95;;;;;;;24.76;27.54;100258.56;4733808;30;20052;-71
2021/04/02 10:28:42;;;;;;;9.30;2.70;;;;;;;24.87;27.38;100249.56;4736036;30;20071;-71
2021/04/02 10:31:46;;;;;;;9.23;3.25;;;;;;;24.81;28.32;100245.84;4734938;30;20075;-71
2021/04/02 10:34:53;;;;;;;10.73;3.20;;;;;;;24.83;28.02;100240.97;4736191;30;20059;-71
2021/04/02 10:37:57;;;;;;;9.13;3.00;;;;;;;24.74;28.53;100235.97;4735691;30;20072;-71
2021/04/02 10:41:02;;;;;;;8.77;3.33;;;;;;;24.53;28.62;100242.75;4735301;30;20060;-71
2021/04/02 10:44:07;;;;;;;9.25;3.17;;;;;;;24.48;28.42;100237.09;4735448;30;20412;-71
2021/04/02 10:47:11;;;;;;;12.52;3.25;;;;;;;24.41;28.29;100230.84;4735369;30;20168;-71
2021/04/02 10:50:16;;;;;;;7.60;2.72;;;;;;;24.61;28.44;100226.00;4735198;30;20433;-71
2021/04/02 10:53:24;;;;;;;7.82;3.17;;;;;;;24.86;28.48;100223.19;4735689;30;20063;-70
2021/04/02 10:56:32;;;;;;;8.98;3.25;;;;;;;24.71;29.42;100215.31;4735477;30;20068;-71
2021/04/02 10:59:37;;;;;;;14.45;3.53;;;;;;;24.32;29.87;100213.03;4735623;30;20059;-71
2021/04/02 11:02:42;;;;;;;8.27;3.35;;;;;;;24.37;30.19;100207.66;4718351;30;20068;-71
2021/04/02 11:05:47;;;;;;;12.98;3.70;;;;;;;24.31;29.93;100198.47;4723350;30;20068;-71
2021/04/02 11:08:51;;;;;;;7.65;3.63;;;;;;;24.29;29.98;100199.75;4735710;30;20080;-70
2021/04/02 11:11:55;;;;;;;12.20;3.85;;;;;;;24.23;30.27;100192.41;4735180;30;20056;-71
2021/04/02 11:15:00;;;;;;;10.88;3.60;;;;;;;24.30;29.14;100190.44;4735571;30;20083;-71
2021/04/02 11:18:05;;;;;;;10.65;3.33;;;;;;;24.32;30.22;100189.13;4734994;30;20069;-71
2021/04/02 11:21:10;;;;;;;10.57;3.85;;;;;;;24.22;30.07;100197.06;4734754;30;20063;-72
2021/04/02 11:24:14;;;;;;;8.75;3.42;;;;;;;24.24;29.63;100192.22;4735065;30;20063;-71
2021/04/02 11:27:20;;;;;;;10.82;4.15;;;;;;;24.33;30.00;100181.75;4732968;30;20059;-71
2021/04/02 11:30:25;;;;;;;9.13;3.63;;;;;;;24.30;29.30;100171.22;4735137;30;20076;-71
2021/04/02 11:33:29;;;;;;;13.55;3.80;;;;;;;24.36;29.48;100170.34;4734582;30;20060;-70
2021/04/02 11:36:34;;;;;;;12.05;3.47;;;;;;;24.43;29.97;100171.94;4735077;30;20056;-71
2021/04/02 11:39:38;;;;;;;13.07;5.25;;;;;;;24.36;29.88;100162.09;4735004;30;20063;-71
2021/04/02 11:42:43;;;;;;;14.68;3.85;;;;;;;24.25;30.39;100163.69;4734854;30;20512;-71
2021/04/02 11:45:47;;;;;;;10.60;4.05;;;;;;;24.15;30.22;100157.03;4734899;30;20056;-71
2021/04/02 11:48:53;;;;;;;10.43;3.58;;;;;;;24.27;29.94;100160.75;4735343;30;20052;-74
2021/04/02 11:51:58;;;;;;;10.95;4.15;;;;;;;24.27;30.09;100145.09;4734217;30;20070;-71
2021/04/02 11:55:05;;;;;;;12.38;4.25;;;;;;;24.17;30.69;100135.72;4735206;30;20066;-71
2021/04/02 11:58:10;;;;;;;14.15;4.78;;;;;;;23.98;29.78;100136.72;4734876;30;20244;-71
2021/04/02 12:01:14;;;;;;;8.77;4.57;;;;;;;23.94;29.60;100144.59;4733783;30;20064;-71
2021/04/02 12:04:19;;;;;;;7.93;4.18;;;;;;;24.00;29.72;100135.44;4734574;30;20063;-71
2021/04/02 12:07:24;;;;;;;9.45;3.90;;;;;;;24.10;29.15;100126.72;4734571;30;20052;-70
2021/04/02 12:10:28;;;;;;;9.73;4.25;;;;;;;24.18;30.07;100129.16;4734645;30;20052;-74
2021/04/02 12:13:32;;;;;;;11.40;3.83;;;;;;;24.24;29.98;100128.25;4734973;30;20059;-76
2021/04/02 12:16:37;;;;;;;11.20;4.63;;;;;;;24.17;30.10;100122.03;4734583;30;20055;-76
2021/04/02 12:19:41;;;;;;;11.18;4.07;;;;;;;24.20;30.26;100116.91;4734903;30;20051;-72
2021/04/02 12:22:45;;;;;;;13.10;4.25;;;;;;;24.34;30.34;100117.59;4734876;30;20064;-72
2021/04/02 12:25:50;;;;;;;11.30;4.38;;;;;;;24.42;29.80;100117.25;4732693;30;20060;-72
2021/04/02 12:28:54;;;;;;;11.15;4.18;;;;;;;24.40;29.32;100111.16;4734910;30;20143;-74
2021/04/02 12:31:59;;;;;;;10.88;4.68;;;;;;;24.40;28.85;100105.69;4734079;30;20064;-73
2021/04/02 12:35:04;;;;;;;11.50;4.63;;;;;;;24.38;28.58;100107.81;4734956;30;20068;-74
2021/04/02 12:38:09;;;;;;;9.32;4.03;;;;;;;24.36;29.01;100102.59;4734551;30;20056;-73
2021/04/02 12:41:14;;;;;;;10.15;4.68;;;;;;;24.51;29.81;100094.78;4734530;30;20063;-71
2021/04/02 12:44:18;;;;;;;10.82;3.88;;;;;;;24.60;29.61;100095.28;4736250;30;20076;-74
2021/04/02 12:47:22;;;;;;;10.82;4.38;;;;;;;24.71;29.16;100089.03;4737449;30;20060;-71
2021/04/02 12:50:27;;;;;;;8.70;4.13;;;;;;;24.64;29.19;100085.50;4737172;30;20516;-72
2021/04/02 12:53:31;;;;;;;9.10;3.88;;;;;;;24.70;29.35;100078.25;4737631;30;20055;-74
2021/04/02 12:56:35;;;;;;;14.70;5.00;;;;;;;24.60;30.08;100076.06;4737426;30;20059;-72
2021/04/02 12:59:40;;;;;;;14.82;5.07;;;;;;;24.61;29.81;100072.28;4735840;30;20508;-72
2021/04/02 13:02:44;;;;;;;10.70;4.63;;;;;;;24.56;29.83;100067.50;4736308;30;20063;-72
2021/04/02 13:05:50;;;;;;;15.77;4.82;;;;;;;24.56;29.80;100061.16;4736950;30;20069;-71
2021/04/02 13:08:54;;;;;;;17.50;4.45;;;;;;;24.61;29.74;100055.81;4737668;30;20605;-75
2021/04/02 13:12:00;;;;;;;8.90;4.32;;;;;;;24.57;29.43;100049.09;4736707;30;20051;-73
2021/04/02 13:15:05;;;;;;;10.38;4.70;;;;;;;24.74;29.32;100041.06;4725811;30;20072;-72
2021/04/02 13:18:09;;;;;;;9.05;3.95;;;;;;;24.75;28.73;100027.06;4736381;30;20056;-76
2021/04/02 13:21:14;;;;;;;9.57;3.67;;;;;;;24.88;28.91;100029.66;4737244;30;20059;-74
2021/04/02 13:24:19;;;;;;;9.38;4.07;;;;;;;24.89;28.22;100030.47;4736846;30;20059;-72
2021/04/02 13:27:23;;;;;;;9.25;4.50;;;;;;;24.87;27.89;100011.50;4736973;30;20063;-75
2021/04/02 13:30:28;;;;;;;10.90;4.18;;;;;;;24.91;28.31;100014.63;4736737;30;20064;-74
2021/04/02 13:33:34;;;;;;;9.80;4.00;;;;;;;24.90;29.29;100011.03;4735682;30;20056;-73
2021/04/02 13:36:39;;;;;;;9.23;4.32;;;;;;;24.87;28.47;100006.00;4719448;30;20060;-74
2021/04/02 13:39:43;;;;;;;7.15;3.25;;;;;;;24.96;29.20;99996.34;4741085;30;20056;-72
2021/04/02 13:42:47;;;;;;;11.02;3.97;;;;;;;24.98;28.63;99987.88;4736356;30;20052;-75
2021/04/02 13:45:53;;;;;;;15.20;4.03;;;;;;;24.96;29.15;99988.09;4736277;30;20056;-77
2021/04/02 13:48:58;;;;;;;9.70;3.97;;;;;;;24.91;28.76;99982.47;4735821;30;20117;-73
2021/04/02 13:52:03;;;;;;;17.92;4.80;;;;;;;24.91;28.65;99981.66;4736585;30;20133;-76
2021/04/02 13:55:10;;;;;;;13.10;4.85;;;;;;;24.88;28.94;99977.50;4735901;30;20060;-72
2021/04/02 13:58:14;;;;;;;9.13;4.63;;;;;;;24.88;28.71;99972.00;4735662;30;20047;-71
2021/04/02 14:01:19;;;;;;;15.20;4.75;;;;;;;24.93;29.15;99963.88;4736614;30;20051;-72
2021/04/02 14:04:24;;;;;;;9.88;3.60;;;;;;;24.93;29.00;99963.03;4736031;30;20528;-72
2021/04/02 14:07:29;;;;;;;10.10;4.28;;;;;;;24.96;28.67;99952.41;4733966;30;20423;-73
2021/04/02 14:10:36;;;;;;;8.52;3.22;;;;;;;25.00;30.06;99955.53;4713657;30;20056;-76
2021/04/02 14:13:41;;;;;;;9.52;4.65;;;;;;;24.79;28.73;99954.16;4718718;30;20071;-77
2021/04/02 14:16:45;;;;;;;12.10;3.95;;;;;;;24.83;29.19;99947.16;4722864;30;20056;-75
2021/04/02 14:19:50;;;;;;;8.32;3.70;;;;;;;24.91;29.50;99945.97;4736109;30;20060;-73
2021/04/02 14:22:55;;;;;;;12.68;5.03;;;;;;;24.94;29.50;99937.22;4721820;30;20060;-76